Scroll down
FLIGHT INFORMATION
Delta Air Lines

DAL2520

At Arrival Gate

KMSP
 KRSW
DATE: 2019-11-16
GATE:  -
GATE DEPARTURE: 20:21
TAKEOFF: 20:32
DATE: 2019-11-16
GATE:  -
LANDING: 23:19
GATE ARRIVAL: 23:29
FLIGHT DATA
Crew: 
Speed: 
468 kts
Altitude: 
33,018 ft
Stage Length: 
1,232.3 nm
Block Time: 
3.1 hrs
Flight Time: 
2.8 hrs
Fuel Used: 
18,729 lb
Cleared Route: 
TRACK DATA
50,000 ft 1,000 kts
AIRCRAFT INFO AND CUMULATIVE STATS
Aircraft Type: 
B739ERBW
Registration: 
SELCAL: 
MSN/LN: 
31941 / 5143
Operator: 
Total Flights: 
10
Total Block Time: 
30.1 hrs
Total Flight Time: 
27.1 hrs
Total Fuel Used: 
195,413 lb
DATALINK LOG | Newest first | Current as of: 2022-11-26 09:44:38
LABEL SEQUENCE CONTENT Dn/Up
QD290323:29 7.4▼ Dn
QC203723:19▼ Dn
GA5137ADVANCED GATE ASSIGNMENTS NOT YET AVAILABLE AT THIS AIRPORT▲ Up
GR4843KRSW --:-- MAAS 02 YP/UM 00/02 WCHR/S/C 00/00/00 HI-VAL NO DIPL/VIP NO▼ Dn
5U3230KFLL 170100Z 32005KT 10SM SKC 22/13 A2981▲ Up
5U3230KRSW 170100Z 35008KT 10SM BKN040 21/13 A2986▲ Up
5S3230KRSW KFLL▼ Dn
QB321520:32▼ Dn
QA211920:21 26.1▼ Dn
A30726CLEARED TO KRSW VIA RST1 ALO STL FAM MKL MGM ACORI Q104 PLYER TYNEE2. SQUAWK 2435.▲ Up
Q00359[LINK TEST]▼ Dn
Q00616[LINK ACK]▲ Up


AIRCRAFT HISTORY
FLIGHT DATE FLIGHT NO. ORIGIN DESTINATION CLEARED ROUTE BLOCK TIME FLIGHT TIME FUEL USED PILOT
2020-06-19DAL619KATL CYEG KATL BNA LAJUG TINGS DENNI PLESS STL IRK DSM EYHUX FSD ABR MOT VLN REFEX CAMRA IGSOX GOPEV ESVIT MUVGO BIPNA ULOXO BIPNA RW024.3 hrs4 hrs38,288 lbRandall Smith
2020-06-18DAL713KSFO KATL KSFO TYDYE TRUKN COSMC SYRAH JSICA MLF HBU LAA GCK RZC MEM HUTCC KNSAW RUSSA RUTTH JKSON MADDX GLAVN STHRN HOGGG RAIIN KLOWD SWEPT KYMMY KEAVY BAMBU RW26R4.4 hrs4.1 hrs24,943 lbDan Downs
2020-01-27DAL856KATL KSFO 5.1 hrs4.8 hrs31,772 lbDan Downs
2020-01-18DAL519KMIA KATL 1.9 hrs1.6 hrs11,776 lbChemtrails
2020-01-11DAL519TJSJ KMIA 2.8 hrs2.3 hrs16,733 lbChemtrails
2019-11-20DAL912MDPC TJSJ 0.9 hrs0.6 hrs4,849 lbCharles Harris
2019-11-19DAL543KATL MDPC 3.1 hrs2.8 hrs19,024 lbDan Downs
2019-11-18DAL1067KRSW KATL 1.7 hrs1.4 hrs10,210 lbDan Downs
2019-11-16DAL2520KMSP KRSW 3.1 hrs2.8 hrs18,729 lbDan Downs
2019-11-15DAL2001KPDX KMSP 3 hrs2.8 hrs19,089 lbDan Downs